Terminal Aerodrome Forecast
Issued by NWS Mt. Holly, NJ

Home | Current Version | Previous Version | Text Only | Print | Product List | Glossary On
Versions: 1 2 3 4 5 6 7 8 9 10 11 12 13 14 15 16 17 18 19 20 21 22 23 24 25 26 27 28 29 30
000
FTAK31 PANC 231740
TAFABE
TAF
PABE 231740Z 2318/2418 VRB04KT P6SM BKN025
      TEMPO 2320/2324 SCT025 BKN050
     FM240000 VRB04KT P6SM SCT025 BKN050
     FM240600 07004KT P6SM VCSH BKN025
     FM241500 07006KT 5SM -SN SCT008 BKN025=

USA.gov is the U.S. government's official web portal to all federal, state and local government web resources and services.